Tiempo atmosférico en la estación meteorológica de Aroche, Huelva (260 m.)



Fecha
DESCASC
Temp. máxima en grados centígrados (hora)
DESCASC
Temp. mínima en grados centígrados (hora)
DESCASC
Temp. media en grados centígrados
DESCASC
Racha de viento máxima en m/sg (hora)
DESCASC
Velocidad máxima media en intervalos de 10 minutos(hora)
DESCASC
Precipitaciones diarias en mm
DESCASC
Precipitaciones de 00:00 a 06:00 en mm
DESCASC
Precipitaciones de 06:00 a 12:00 en mm
DESCASC
Precipitaciones de 12:00 a 18:00 en mm
DESCASC
Precipitaciones de 18:00 a 24:00 en mm
DESCASC
23-06-2019 32.4 (16:30) 9.1 (07:20) 20.8 8.89 (12:00) 4.44 (20:10) 0 0 0 0 0
22-06-2019 33.6 (17:10) 10.3 (07:20) 21.9 8.33 (12:40) 4.72 (19:20) 0 0 0 0 0
21-06-2019 29.9 (18:30) 13.9 (04:40) 21.9 10 (18:20) 4.72 (01:00) 0 0 0 0 0
20-06-2019 26.5 (17:50) 11.8 (00:00) 19.2 11.11 (17:10) 5.28 (17:10) 0 0 0 0 0
19-06-2019 27.7 (17:50) 13 (00:00) 20.4 7.5 (21:00) 4.17 (18:10) 0 0 0 0 0
18-06-2019 26.2 (19:00) 7 (00:00) 16.6 10.56 (17:30) 5.83 (17:30) 0 0 0 0 0
17-06-2019 30.5 (15:30) 7.2 (00:00) 18.8 9.17 (14:10) 5.28 (16:30) 0 0 0 0 0
16-06-2019 31.9 (17:20) 7.6 (00:00) 19.7 9.72 (19:10) 5.56 (19:30) 0 0 0 0 0
15-06-2019 26.7 (18:30) 5.9 (00:00) 16.3 7.5 (17:00) 3.89 (19:30) 0 0 0 0 0
14-06-2019 22.1 (19:50) 5.4 (00:00) 13.8 11.39 (11:20) 5.28 (20:30) 0 0 0 0 0
13-06-2019 26.1 (17:20) 7.3 (00:00) 16.7 8.33 (18:10) 5.28 (18:10) 0 0 0 0 0
12-06-2019 29.2 (17:20) 5.3 (00:00) 17.3 10.28 (22:20) 5 (22:40) 0 0 0 0 0
11-06-2019 27 (17:30) 10.9 (00:00) 18.9 10.28 (15:30) 5.83 (15:30) 0 0 0 0 0
10-06-2019 27.5 (17:30) 7.3 (00:00) 17.4 10.56 (23:10) 6.11 (22:30) 0 0 0 0 0
09-06-2019 26.5 (17:20) 6.1 (00:00) 16.3 10.83 (18:50) 5.83 (18:50) 0 0 0 0 0
08-06-2019 29 (18:50) 5.9 (00:00) 17.5 8.33 (01:30) 4.44 (01:30) 0 0 0 0 0
07-06-2019 23.7 (18:40) 11.3 (00:00) 17.5 11.11 (01:40) 5.83 (01:40) 0 0 0 0 0
06-06-2019 24.6 (18:00) 5.3 (00:00) 15 10 (18:50) 6.11 (20:20) 0 0 0 0 0
05-06-2019 23.2 (18:30) 12.3 (00:00) 17.8 11.67 (00:10) 6.67 (00:10) 0 0 0 0 0
04-06-2019 26.9 (16:10) 11 (00:00) 18.9 11.67 (19:20) 6.94 (19:30) 0 0 0 0 0
03-06-2019 34.2 (16:30) 11.7 (00:00) 23 8.89 (16:50) 5.28 (20:40) 0 0 0 0 0
02-06-2019 36.6 (18:20) 11.4 (00:00) 24 8.61 (20:30) 4.72 (20:40) 0 0 0 0 0
01-06-2019 36.6 (18:50) 11.3 (00:00) 23.9 9.17 (15:50) 4.72 (13:40) 0 0 0 0 0
31-05-2019 35.6 (17:40) 9.8 (00:00) 22.7 9.17 (15:20) 5 (11:00) 0 0 0 0 0
30-05-2019 35 (17:20) 9.8 (00:00) 22.4 10 (11:00) 6.11 (11:00) 0 0 0 0 0
29-05-2019 33.6 (17:30) 14.5 (00:00) 24 8.89 (01:00) 5.28 (01:00) 0 0 0 0 0
28-05-2019 34 (17:30) 10.1 (00:00) 22.1 8.61 (23:10) 4.72 (23:10) 0 0 0 0 0
27-05-2019 33.2 (16:30) 9.7 (00:00) 21.5 10 (17:00) 5.28 (17:00) 0 0 0 0 0
26-05-2019 31.9 (17:20) 9.8 (00:00) 20.8 9.17 (16:40) 4.44 (13:30) 0 0 0 0 0

Gráficas

Temp. máximas Temp. mínimas Temp. medias Precipitaciones Rachas de viento máximas Velocidades máximas media en intervalos de 10 minutos

Datos horarios

Fecha y hora oficial Temperatura (ºC) Velocidad del viento (km/h) Dirección del viento Racha (km/h) Dirección de racha Precipitación (mm) Presión (hPa) Tendencia (hPa) Humedad (%)
2019-06-24 23:00:00 23.1 9 Noroeste 23 Nordeste 0 -- -- 47
2019-06-24 22:00:00 25.8 12 Sur 20 Sur 0 -- -- 56
2019-06-24 21:00:00 27.9 7 Oeste 18 Oeste 0 -- -- 51
2019-06-24 20:00:00 29.2 11 Oeste 23 Oeste 0 -- -- 48
2019-06-24 19:00:00 28.4 11 Oeste 23 Oeste 0 -- -- 50
2019-06-24 18:00:00 28.4 13 Noroeste 28 Oeste 0 -- -- 49
2019-06-24 17:00:00 29.3 14 Noroeste 31 Noroeste 0 -- -- 47
2019-06-24 16:00:00 28.5 14 Oeste 25 Oeste 0 -- -- 48
2019-06-24 15:00:00 27.9 12 Oeste 23 Sudoeste 0 -- -- 49
2019-06-24 14:00:00 28.6 11 Sudoeste 24 Oeste 0 -- -- 46
2019-06-24 13:00:00 27.7 11 Sudoeste 26 Sudeste 0 -- -- 48
2019-06-24 12:00:00 27.5 10 Sudeste 16 Sudeste 0 -- -- 47
2019-06-24 11:00:00 24.6 7 Oeste 16 Oeste 0 -- -- 61
2019-06-24 10:00:00 22.5 3 Oeste 6 Norte 0 -- -- 73
2019-06-24 09:00:00 20 4 Este 6 Este 0 -- -- 82
2019-06-24 08:00:00 17.1 2 Sur 6 Este 0 -- -- 90
2019-06-24 07:00:00 17.3 0 Calma 3 Noroeste 0 -- -- 88
2019-06-24 06:00:00 18 0 Calma 6 Este 0 -- -- 86
2019-06-24 05:00:00 18.9 0 Calma 6 Oeste 0 -- -- 85
2019-06-24 04:00:00 19.5 3 Oeste 9 Oeste 0 -- -- 83
2019-06-24 03:00:00 20 2 Noroeste 11 Oeste 0 -- -- 81
2019-06-24 02:00:00 20.7 8 Oeste 15 Oeste 0 -- -- 79
2019-06-24 01:00:00 20.7 5 Oeste 10 Oeste 0 -- -- 74
2019-06-24 00:00:00 22.3 0 Calma 8 Oeste 0 -- -- 67
2019-06-23 23:00:00 23.6 5 Oeste 24 Oeste 0 -- -- 63
2019-06-23 22:00:00 25.5 15 Oeste 23 Oeste 0 -- -- 54
2019-06-23 21:00:00 27.1 9 Sudoeste 26 Sur 0 -- -- 38
2019-06-23 20:00:00 29.5 14 Sudoeste 23 Sur 0 -- -- 34
2019-06-23 19:00:00 31 8 Sudoeste 26 Oeste 0 -- -- 25
2019-06-23 18:00:00 31.4 14 Noroeste 25 Noroeste 0 -- -- 19
2019-06-23 17:00:00 31.8 14 Oeste 30 Oeste 0 -- -- 20
2019-06-23 16:00:00 31.5 10 Noroeste 28 Oeste 0 -- -- 22
2019-06-23 15:00:00 31 5 Noroeste 23 Sudoeste 0 -- -- 27
2019-06-23 14:00:00 29.8 6 Sur 23 Sur 0 -- -- 29
2019-06-23 13:00:00 28.7 9 Sudoeste 24 Sur 0 -- -- 31
2019-06-23 12:00:00 27.3 13 Sur 32 Sudeste 0 -- -- 33
2019-06-23 11:00:00 24.5 3 Noroeste 9 Oeste 0 -- -- 31
2019-06-23 10:00:00 20 5 Noroeste 8 Oeste 0 -- -- 40
2019-06-23 09:00:00 16.9 0 Calma 8 Este 0 -- -- 48
2019-06-23 08:00:00 10.3 2 Sudoeste 4 Este 0 -- -- 65
2019-06-23 07:00:00 9.5 0 Calma 5 Sur 0 -- -- 66
2019-06-23 06:00:00 10.1 4 Sudeste 6 Sudeste 0 -- -- 63
2019-06-23 05:00:00 10.4 3 Este 5 Este 0 -- -- 60
2019-06-23 04:00:00 11.3 2 Sudeste 4 Sur 0 -- -- 55
2019-06-23 03:00:00 12.3 0 Calma 4 Nordeste 0 -- -- 52
2019-06-23 02:00:00 13.9 2 Este 5 Este 0 -- -- 48
2019-06-23 01:00:00 16.2 0 Calma 6 Oeste 0 -- -- 40
2019-06-23 00:00:00 20 2 Oeste 12 Oeste 0 -- -- 32
2019-06-22 23:00:00 23.4 8 Oeste 27 Oeste 0 -- -- 24
2019-06-22 22:00:00 27 14 Oeste 23 Sudoeste 0 -- -- 24
2019-06-22 21:00:00 30.8 12 Sur 26 Sur 0 -- -- 24
2019-06-22 20:00:00 32.8 13 Sur 30 Sudoeste 0 -- -- 21
2019-06-22 19:00:00 33.3 13 Sur 30 Sudoeste 0 -- -- 20
2019-06-22 18:00:00 33.6 10 Sur 27 Sur 0 -- -- 20
2019-06-22 17:00:00 33.4 7 Sur 26 Sur 0 -- -- 21
2019-06-22 16:00:00 32.7 11 Sudoeste 26 Sur 0 -- -- 23
2019-06-22 15:00:00 31.7 9 Sudoeste 24 Sudoeste 0 -- -- 25
2019-06-22 14:00:00 31.1 13 Sudoeste 24 Oeste 0 -- -- 26
2019-06-22 13:00:00 30.1 12 Sudoeste 30 Sudoeste 0 -- -- 28
2019-06-22 12:00:00 27.9 8 Oeste 17 Oeste 0 -- -- 31
2019-06-22 11:00:00 26.3 10 Noroeste 17 Oeste 0 -- -- 34
2019-06-22 10:00:00 21.6 0 Calma 4 Sudoeste 0 -- -- 41
2019-06-22 09:00:00 17.1 0 Calma 6 Este 0 -- -- 59
2019-06-22 08:00:00 11 0 Calma 4 Este 0 -- -- 84
2019-06-22 07:00:00 10.4 2 Este 4 Este 0 -- -- 83
2019-06-22 06:00:00 11.5 2 Nordeste 4 Sudeste 0 -- -- 80
2019-06-22 05:00:00 12.5 3 Este 5 Este 0 -- -- 76
2019-06-22 04:00:00 13.8 0 Calma 6 Sudeste 0 -- -- 71
2019-06-22 03:00:00 16.2 2 Este 10 Noroeste 0 -- -- 63
2019-06-22 02:00:00 19.6 4 Noroeste 13 Oeste 0 -- -- 53
2019-06-22 01:00:00 21.4 4 Noroeste 18 Oeste 0 -- -- 48
2019-06-22 00:00:00 22.9 5 Sudoeste 26 Norte 0 -- -- 44
2019-06-21 23:00:00 23.5 10 Noroeste 19 Noroeste 0 -- -- 41
2019-06-21 22:00:00 25.9 10 Noroeste 25 Noroeste 0 -- -- 33
2019-06-21 21:00:00 27.2 10 Noroeste 21 Noroeste 0 -- -- 31
2019-06-21 20:00:00 28.8 13 Oeste 26 Sudoeste 0 -- -- 29
2019-06-21 19:00:00 29 10 Noroeste 36 Nordeste 0 -- -- 29
2019-06-21 18:00:00 29.2 10 Noroeste 26 Noroeste 0 -- -- 28
2019-06-21 17:00:00 29.3 10 Norte 25 Noroeste 0 -- -- 28
2019-06-21 16:00:00 28.3 9 Norte 32 Oeste 0 -- -- 30
2019-06-21 15:00:00 27.2 13 Norte 26 Oeste 0 -- -- 33
2019-06-21 14:00:00 25.7 12 Noroeste 24 Noroeste 0 -- -- 40
2019-06-21 13:00:00 24.2 9 Noroeste 19 Norte 0 -- -- 46
2019-06-21 12:00:00 21.9 5 Noroeste 17 Oeste 0 -- -- 53
2019-06-21 11:00:00 19.5 6 Oeste 14 Noroeste 0 -- -- 60
2019-06-21 10:00:00 16.7 6 Noroeste 14 Oeste 0 -- -- 71
2019-06-21 09:00:00 15 8 Norte 19 Noroeste 0 -- -- 77
2019-06-21 08:00:00 14.4 4 Norte 13 Norte 0 -- -- 80
2019-06-21 07:00:00 14.3 7 Norte 13 Norte 0 -- -- 80
2019-06-21 06:00:00 14.3 7 Norte 18 Noroeste 0 -- -- 80
2019-06-21 05:00:00 14 3 Oeste 15 Noroeste 0 -- -- 80
2019-06-21 04:00:00 14.5 4 Noroeste 15 Norte 0 -- -- 76
2019-06-21 03:00:00 15.7 13 Norte 30 Norte 0 -- -- 70
2019-06-21 02:00:00 16.5 9 Noroeste 31 Noroeste 0 -- -- 67
2019-06-21 01:00:00 18.4 17 Noroeste 30 Noroeste 0 -- -- 60
2019-06-21 00:00:00 19.7 9 Noroeste 29 Noroeste 0 -- -- 53
2019-06-20 23:00:00 20.8 10 Noroeste 24 Noroeste 0 -- -- 48
2019-06-20 22:00:00 21.4 11 Noroeste 33 Noroeste 0 -- -- 48
2019-06-20 21:00:00 22.7 12 Noroeste 28 Oeste 0 -- -- 45
2019-06-20 20:00:00 25.1 16 Noroeste 32 Oeste 0 -- -- 42
2019-06-20 19:00:00 26.1 16 Oeste 31 Noroeste 0 -- -- 38
2019-06-20 18:00:00 26.2 17 Oeste 40 Oeste 0 -- -- 37
2019-06-20 17:00:00 26.2 15 Noroeste 32 Noroeste 0 -- -- 35
2019-06-20 16:00:00 25.6 15 Oeste 34 Sudoeste 0 -- -- 39
2019-06-20 15:00:00 25.7 16 Oeste 32 Oeste 0 -- -- 40
2019-06-20 14:00:00 24.7 8 Oeste 24 Oeste 0 -- -- 43
2019-06-20 13:00:00 23.7 11 Oeste 29 Noroeste 0 -- -- 47
2019-06-20 12:00:00 22.3 9 Noroeste 22 Oeste 0 -- -- 53
2019-06-20 11:00:00 20.9 9 Oeste 18 Sudoeste 0 -- -- 64
2019-06-20 10:00:00 18.7 6 Sudoeste 14 Oeste 0 -- -- 73
2019-06-20 09:00:00 16.9 8 Oeste 12 Oeste 0 -- -- 81
2019-06-20 08:00:00 13.9 0 Calma 3 Este 0 -- -- 86
2019-06-20 07:00:00 13.3 0 Calma 3 Este 0 -- -- 88
2019-06-20 06:00:00 12.8 2 Sudeste 4 Este 0 -- -- 90
2019-06-20 05:00:00 11.9 0 Calma 5 Este 0 -- -- 89
2019-06-20 04:00:00 12.8 0 Calma 3 Nordeste 0 -- -- 86
2019-06-20 03:00:00 14.8 0 Calma 7 Oeste 0 -- -- 79
2019-06-20 02:00:00 16.8 4 Oeste 12 Sudoeste 0 -- -- 73
2019-06-20 01:00:00 18.2 8 Oeste 19 Oeste 0 -- -- 70
2019-06-20 00:00:00 19.8 12 Oeste 20 Oeste 0 -- -- 63
2019-06-19 23:00:00 20.8 9 Oeste 21 Oeste 0 -- -- 60
2019-06-19 22:00:00 22.4 11 Oeste 22 Oeste 0 -- -- 57
2019-06-19 21:00:00 24.6 14 Oeste 27 Noroeste 0 -- -- 50
2019-06-19 20:00:00 26.2 14 Oeste 24 Oeste 0 -- -- 45
2019-06-19 19:00:00 25.7 10 Oeste 24 Sudoeste 0 -- -- 46
2019-06-19 18:00:00 27.3 10 Noroeste 24 Oeste 0 -- -- 40
2019-06-19 17:00:00 26.6 8 Oeste 22 Oeste 0 -- -- 40
2019-06-19 16:00:00 26.2 8 Sudoeste 22 Sudoeste 0 -- -- 42
2019-06-19 15:00:00 25 11 Oeste 21 Sur 0 -- -- 45
2019-06-19 14:00:00 -- -- -- -- -- -- -- -- --
2019-06-19 13:00:00 23.1 11 Noroeste -- -- -- -- -- 51
2019-06-19 12:00:00 -- -- -- -- -- -- -- -- --
2019-06-19 11:00:00 -- -- -- -- -- -- -- -- --
2019-06-19 10:00:00 -- -- -- -- -- -- -- -- --
2019-06-19 09:00:00 -- -- -- -- -- -- -- -- --
2019-06-19 08:00:00 -- -- -- -- -- -- -- -- --
2019-06-19 07:00:00 -- -- -- -- -- -- -- -- --
2019-06-19 06:00:00 -- -- -- -- -- -- -- -- --
2019-06-19 05:00:00 -- -- -- -- -- -- -- -- --
2019-06-19 04:00:00 -- -- -- -- -- -- -- -- --
2019-06-19 03:00:00 -- -- -- -- -- -- -- -- --
2019-06-19 02:00:00 -- -- -- -- -- -- -- -- --
2019-06-19 01:00:00 -- -- -- -- -- -- -- -- --
2019-06-19 00:00:00 -- -- -- -- -- -- -- -- --
2019-06-18 23:00:00 -- -- -- -- -- -- -- -- --
2019-06-18 22:00:00 -- -- -- -- -- -- -- -- --
2019-06-18 21:00:00 -- -- -- -- -- -- -- -- --
2019-06-18 20:00:00 -- -- -- -- -- -- -- -- --
2019-06-18 19:00:00 -- -- -- -- -- -- -- -- --
2019-06-18 18:00:00 -- -- -- -- -- -- -- -- --
2019-06-18 17:00:00 -- -- -- -- -- -- -- -- --
2019-06-18 16:00:00 24.9 21 Sur 35 Sudoeste 0 -- -- 53
2019-06-18 15:00:00 24.6 17 Sur 33 Sudoeste 0 -- -- 52
2019-06-18 14:00:00 23.8 17 Sur 30 Sudoeste 0 -- -- 54
2019-06-18 13:00:00 22.3 12 Sur 28 Sur 0 -- -- 56
2019-06-18 12:00:00 22.9 13 Sur 24 Sur 0 -- -- 53
2019-06-18 11:00:00 19.2 10 Sudoeste 23 Sudoeste 0 -- -- 65
2019-06-18 10:00:00 -- -- -- -- -- -- -- -- --
2019-06-18 09:00:00 14 2 Nordeste 5 Este 0 -- -- 66
2019-06-18 08:00:00 9.2 0 Calma 5 Sudeste 0 -- -- 67
2019-06-18 07:00:00 7.5 2 Este 5 Este 0 -- -- 68
2019-06-18 06:00:00 7.5 0 Calma 2 Este 0 -- -- 67
2019-06-18 05:00:00 8.4 0 Calma 2 Nordeste 0 -- -- 62
2019-06-18 04:00:00 10.2 2 Nordeste 4 Nordeste 0 -- -- 56
2019-06-18 03:00:00 11.9 0 Calma 4 Nordeste 0 -- -- 48
2019-06-18 02:00:00 13.8 0 Calma 4 Sudoeste 0 -- -- 45
2019-06-18 01:00:00 16.7 0 Calma 7 Oeste 0 -- -- 38
2019-06-18 00:00:00 18.9 0 Calma 5 Nordeste 0 -- -- 34
2019-06-17 23:00:00 21 3 Sur 6 Sudeste 0 -- -- 29
2019-06-17 22:00:00 23.2 5 Este 14 Sudeste 0 -- -- 23
2019-06-17 21:00:00 26.2 7 Sur 22 Sudoeste 0 -- -- 20
2019-06-17 20:00:00 28.9 12 Sur 28 Sudoeste 0 -- -- 18
2019-06-17 19:00:00 29.7 16 Sur 31 Sur 0 -- -- 21
2019-06-17 18:00:00 30 16 Sudoeste 31 Sur 0 -- -- 20
2019-06-17 17:00:00 30.2 18 Sur 32 Sudoeste 0 -- -- 20
2019-06-17 16:00:00 30.2 17 Sur 33 Sur 0 -- -- 23
2019-06-17 15:00:00 30.1 18 Sur 33 Sur 0 -- -- 23
2019-06-17 14:00:00 28.6 14 Sur 31 Sudoeste 0 -- -- 22
2019-06-17 13:00:00 27.6 16 Sudoeste 28 Sur 0 -- -- 25
2019-06-17 12:00:00 25.9 12 Sur 25 Sudoeste 0 -- -- 29
2019-06-17 11:00:00 24.4 13 Sur 24 Sudoeste 0 -- -- 32
2019-06-17 10:00:00 22 11 Sudeste 19 Sudeste 0 -- -- 37
2019-06-17 09:00:00 15.5 0 Calma 6 Este 0 -- -- 60
2019-06-17 08:00:00 9.6 3 Sudeste 6 Este 0 -- -- 81
2019-06-17 07:00:00 7.4 5 Sudeste 7 Sudeste 0 -- -- 88
2019-06-17 06:00:00 8.9 4 Este 5 Sudeste 0 -- -- 77
2019-06-17 05:00:00 8.9 3 Sudeste 6 Sudeste 0 -- -- 79
2019-06-17 04:00:00 9.9 4 Sudeste 6 Sudeste 0 -- -- 74
2019-06-17 03:00:00 11 3 Este 5 Nordeste 0 -- -- 67
2019-06-17 02:00:00 12.6 3 Nordeste 5 Nordeste 0 -- -- 62
2019-06-17 01:00:00 14.7 3 Este 4 Nordeste 0 -- -- 55
2019-06-17 00:00:00 17 3 Norte 11 Noroeste 0 -- -- 48
2019-06-16 23:00:00 19.7 4 Sur 12 Sur 0 -- -- 41
2019-06-16 22:00:00 23.4 4 Sur 17 Sudeste 0 -- -- 31
2019-06-16 21:00:00 27.4 10 Sur 26 Sur 0 -- -- 27
2019-06-16 20:00:00 29.2 17 Sur 35 Sudoeste 0 -- -- 26
2019-06-16 19:00:00 31.2 11 Sur 30 Sudoeste 0 -- -- 18
2019-06-16 18:00:00 31.6 13 Sudoeste 26 Sudoeste 0 -- -- 17
2019-06-16 17:00:00 31.3 13 Sudeste 27 Sur 0 -- -- 18
2019-06-16 16:00:00 30.5 12 Sudoeste 24 Sur 0 -- -- 17
2019-06-16 15:00:00 29.2 8 Sudeste 30 Sur 0 -- -- 22
2019-06-16 14:00:00 29 8 Sudoeste 27 Sudoeste 0 -- -- 24
2019-06-16 13:00:00 28.1 9 Sudoeste 21 Sudoeste 0 -- -- 27
2019-06-16 12:00:00 24.8 3 Sudoeste 9 Sudoeste 0 -- -- 34
2019-06-16 11:00:00 22 0 Calma 6 Sudoeste 0 -- -- 43
2019-06-16 10:00:00 16.5 2 Oeste 6 Oeste 0 -- -- 60
2019-06-16 09:00:00 12.3 0 Calma 3 Sudeste 0 -- -- 72
2019-06-16 08:00:00 9 0 Calma 5 Nordeste 0 -- -- 81
2019-06-16 07:00:00 7.9 0 Calma 5 Nordeste 0 -- -- 82
2019-06-16 06:00:00 8.3 0 Calma 4 Este 0 -- -- 79
2019-06-16 05:00:00 9 2 Este 4 Sudeste 0 -- -- 75
2019-06-16 04:00:00 10.2 2 Este 7 Este 0 -- -- 68
2019-06-16 03:00:00 11.3 3 Nordeste 10 Oeste 0 -- -- 65
2019-06-16 02:00:00 12.1 3 Nordeste 8 Noroeste 0 -- -- 60
2019-06-16 01:00:00 13.1 2 Norte 8 Este 0 -- -- 55
2019-06-16 00:00:00 15.7 3 Este 7 Este 0 -- -- 48
2019-06-15 23:00:00 19.1 5 Norte 7 Norte 0 -- -- 40
2019-06-15 22:00:00 22.6 6 Noroeste 22 Oeste 0 -- -- 31
2019-06-15 21:00:00 25.1 9 Noroeste 22 Noroeste 0 -- -- 28
2019-06-15 20:00:00 26.2 11 Noroeste 23 Oeste 0 -- -- 25
2019-06-15 19:00:00 26.3 12 Noroeste 24 Noroeste 0 -- -- 25
2019-06-15 18:00:00 26.3 12 Noroeste 26 Noroeste 0 -- -- 26
2019-06-15 17:00:00 26 13 Norte 27 Noroeste 0 -- -- 26
2019-06-15 16:00:00 25.5 5 Sudoeste 26 Noroeste 0 -- -- 28
2019-06-15 15:00:00 24.3 7 Noroeste 26 Oeste 0 -- -- 30
2019-06-15 14:00:00 23.4 6 Oeste 22 Norte 0 -- -- 31
2019-06-15 13:00:00 22 10 Noroeste 22 Nordeste 0 -- -- 36
2019-06-15 12:00:00 20.8 8 Nordeste 21 Nordeste 0 -- -- 39
2019-06-15 11:00:00 19.3 10 Nordeste 19 Norte 0 -- -- 45
2019-06-15 10:00:00 17.4 6 Norte 17 Norte 0 -- -- 54
2019-06-15 09:00:00 11.9 0 Calma 3 Noroeste 0 -- -- 79
2019-06-15 08:00:00 7.7 0 Calma 6 Nordeste 0 -- -- 87
2019-06-15 07:00:00 5.9 0 Calma 6 Norte 0 -- -- 87
2019-06-15 06:00:00 6.4 0 Calma 4 Sur 0 -- -- 85
2019-06-15 05:00:00 7.1 3 Nordeste 10 Este 0 -- -- 84
2019-06-15 04:00:00 7.7 2 Este 4 Este 0 -- -- 79
2019-06-15 03:00:00 8.9 0 Calma 4 Este 0 -- -- 75
2019-06-15 02:00:00 10.9 0 Calma 5 Noroeste 0 -- -- 68
2019-06-15 01:00:00 12.6 2 Norte 9 Oeste 0 -- -- 63
2019-06-15 00:00:00 14.9 5 Oeste 16 Oeste 0 -- -- 55
2019-06-14 23:00:00 16.5 8 Oeste 19 Oeste 0 -- -- 50
2019-06-14 22:00:00 18 9 Noroeste 23 Oeste 0 -- -- 44
2019-06-14 21:00:00 19.5 12 Noroeste 33 Oeste 0 -- -- 40
2019-06-14 20:00:00 21.5 17 Oeste 29 Sudoeste 0 -- -- 33
2019-06-14 19:00:00 21.6 14 Oeste 33 Oeste 0 -- -- 34
2019-06-14 18:00:00 21.4 8 Noroeste 30 Noroeste 0 -- -- 36
2019-06-14 17:00:00 21.1 13 Oeste 31 Oeste 0 -- -- 34
2019-06-14 16:00:00 20.8 18 Oeste 31 Noroeste 0 -- -- 38
2019-06-14 15:00:00 20.2 12 Oeste 26 Noroeste 0 -- -- 39
2019-06-14 14:00:00 18.4 16 Oeste 26 Oeste 0 -- -- 45
2019-06-14 13:00:00 18.4 14 Oeste 30 Sudoeste 0 -- -- 44
2019-06-14 12:00:00 17.6 14 Noroeste 41 Noroeste 0 -- -- 47
2019-06-14 11:00:00 16.1 11 Oeste 22 Oeste 0 -- -- 56
2019-06-14 10:00:00 15.2 6 Noroeste 13 Noroeste 0 -- -- 61
2019-06-14 09:00:00 12 3 Oeste 8 Sudeste 0 -- -- 78
2019-06-14 08:00:00 6.1 0 Calma 3 Norte 0 -- -- 87
2019-06-14 07:00:00 5.6 2 Nordeste 4 Sur 0 -- -- 86
2019-06-14 06:00:00 6.6 2 Sudeste 5 Sudeste 0 -- -- 82
2019-06-14 05:00:00 8.4 0 Calma 5 Norte 0 -- -- 77
2019-06-14 04:00:00 10.6 2 Sudeste 9 Sudoeste 0 -- -- 71
2019-06-14 03:00:00 12.6 3 Norte 11 Oeste 0 -- -- 63
2019-06-14 02:00:00 14.1 6 Oeste 15 Oeste 0 -- -- 57
2019-06-14 01:00:00 15.6 5 Oeste 32 Norte 0 -- -- 53
2019-06-14 00:00:00 17.6 10 Oeste 26 Oeste 0 -- -- 45
2019-06-13 23:00:00 18.7 9 Oeste 24 Oeste 0 -- -- 43
2019-06-13 22:00:00 21 14 Oeste 24 Oeste 0 -- -- 35
2019-06-13 21:00:00 23.2 8 Oeste 22 Oeste 0 -- -- 27
2019-06-13 20:00:00 24.9 13 Oeste 27 Noroeste 0 -- -- 24
2019-06-13 19:00:00 25.2 13 Oeste 30 Oeste 0 -- -- 24
2019-06-13 18:00:00 25.8 13 Oeste 25 Noroeste 0 -- -- 23
2019-06-13 17:00:00 25.5 15 Oeste 28 Oeste 0 -- -- 23
2019-06-13 16:00:00 25.3 16 Oeste 29 Oeste 0 -- -- 24
2019-06-13 15:00:00 24.2 13 Oeste 28 Oeste 0 -- -- 27
2019-06-13 14:00:00 23.2 9 Oeste 23 Oeste 0 -- -- 30
2019-06-13 13:00:00 21.6 10 Oeste 21 Sudoeste 0 -- -- 33
2019-06-13 12:00:00 19.1 11 Oeste 21 Oeste 0 -- -- 45
2019-06-13 11:00:00 17.1 6 Oeste 12 Sudoeste 0 -- -- 51
2019-06-13 10:00:00 14.4 4 Oeste 9 Oeste 0 -- -- 62
2019-06-13 09:00:00 12.2 2 Sudoeste 4 Sudoeste 0 -- -- 69
2019-06-13 08:00:00 8.5 2 Este 4 Este 0 -- -- 77
2019-06-13 07:00:00 8.5 0 Calma 11 Norte 0 -- -- 77
2019-06-13 06:00:00 9.5 4 Noroeste 14 Norte 0 -- -- 75
2019-06-13 05:00:00 10.9 4 Norte 12 Norte 0 -- -- 67
2019-06-13 04:00:00 11.7 0 Calma 14 Noroeste 0 -- -- 57
2019-06-13 03:00:00 14 7 Norte 17 Norte 0 -- -- 51
2019-06-13 02:00:00 15.2 3 Noroeste 15 Noroeste 0 -- -- 46
2019-06-13 01:00:00 16.9 7 Oeste 21 Oeste 0 -- -- 41
2019-06-13 00:00:00 18.8 11 Sudoeste 28 Norte 0 -- -- 38
2019-06-12 23:00:00 21.1 16 Norte 37 Noroeste 0 -- -- 32
2019-06-12 22:00:00 23.7 14 Noroeste 23 Noroeste 0 -- -- 19
2019-06-12 21:00:00 26.8 12 Oeste 25 Noroeste 0 -- -- 18
2019-06-12 20:00:00 28.1 14 Oeste 31 Oeste 0 -- -- 16
2019-06-12 19:00:00 28.9 12 Oeste 30 Oeste 0 -- -- 14
2019-06-12 18:00:00 28.9 15 Oeste 27 Oeste 0 -- -- 15
2019-06-12 17:00:00 29 15 Oeste 32 Oeste 0 -- -- 15
2019-06-12 16:00:00 28.4 12 Noroeste 28 Oeste 0 -- -- 17
2019-06-12 15:00:00 28 13 Oeste 26 Oeste 0 -- -- 19
2019-06-12 14:00:00 27.1 10 Noroeste 24 Oeste 0 -- -- 20
2019-06-12 13:00:00 26.6 6 Nordeste 23 Oeste 0 -- -- 21
2019-06-12 12:00:00 25.2 8 Oeste 17 Oeste 0 -- -- 23
2019-06-12 11:00:00 23.4 5 Norte 12 Noroeste 0 -- -- 25
2019-06-12 10:00:00 19.6 4 Noroeste 9 Noroeste 0 -- -- 29
2019-06-12 09:00:00 12.7 0 Calma 4 Nordeste 0 -- -- 48
2019-06-12 08:00:00 6.6 0 Calma 7 Nordeste 0 -- -- 67
2019-06-12 07:00:00 5.9 0 Calma 5 Este 0 -- -- 64
2019-06-12 06:00:00 6.7 2 Este 6 Sudeste 0 -- -- 60
2019-06-12 05:00:00 8.2 0 Calma 5 Nordeste 0 -- -- 54
2019-06-12 04:00:00 10.8 4 Este 9 Sudeste 0 -- -- 47
2019-06-12 03:00:00 13.6 2 Sudoeste 8 Sudoeste 0 -- -- 41
2019-06-12 02:00:00 15 3 Oeste 21 Nordeste 0 -- -- 30
2019-06-12 01:00:00 18.2 10 Norte 22 Nordeste 0 -- -- 25
2019-06-12 00:00:00 20 9 Norte 22 Nordeste 0 -- -- 23
2019-06-11 23:00:00 21 9 Nordeste 22 Nordeste 0 -- -- 25
2019-06-11 22:00:00 22.7 5 Norte 27 Nordeste 0 -- -- 23
2019-06-11 21:00:00 25.2 13 Norte 31 Noroeste 0 -- -- 21
2019-06-11 20:00:00 26.1 13 Norte 34 Norte 0 -- -- 17
2019-06-11 19:00:00 26.6 14 Norte 31 Noroeste 0 -- -- 18
2019-06-11 18:00:00 26.8 14 Norte 36 Norte 0 -- -- 23
2019-06-11 17:00:00 26.6 18 Norte 32 Noroeste 0 -- -- 26
2019-06-11 16:00:00 26 14 Noroeste 37 Noroeste 0 -- -- 29
2019-06-11 15:00:00 24.8 18 Norte 36 Noroeste 0 -- -- 32
2019-06-11 14:00:00 23.7 20 Noroeste 33 Noroeste 0 -- -- 37
2019-06-11 13:00:00 22.3 15 Noroeste 32 Norte 0 -- -- 41
2019-06-11 12:00:00 20.5 15 Noroeste 29 Noroeste 0 -- -- 45
2019-06-11 11:00:00 18.2 12 Noroeste 28 Oeste 0 -- -- 52
2019-06-11 10:00:00 15.8 10 Norte 25 Noroeste 0 -- -- 60
2019-06-11 09:00:00 13.7 10 Noroeste 19 Noroeste 0 -- -- 68
2019-06-11 08:00:00 12.1 3 Noroeste 9 Noroeste 0 -- -- 73
2019-06-11 07:00:00 10.9 3 Noroeste 6 Noroeste 0 -- -- 74
2019-06-11 06:00:00 11.6 3 Norte 26 Oeste 0 -- -- 70
2019-06-11 05:00:00 11.4 6 Oeste 12 Oeste 0 -- -- 70
2019-06-11 04:00:00 12.5 5 Oeste 15 Oeste 0 -- -- 64
2019-06-11 03:00:00 13.7 8 Oeste 17 Oeste 0 -- -- 58
2019-06-11 02:00:00 15.1 8 Noroeste 20 Oeste 0 -- -- 51
2019-06-11 01:00:00 17.1 10 Oeste 23 Sudoeste 0 -- -- 42
2019-06-11 00:00:00 18.8 10 Noroeste 38 Noroeste 0 -- -- 38
2019-06-10 23:00:00 20.8 20 Norte 37 Noroeste 0 -- -- 35
2019-06-10 22:00:00 23 15 Noroeste 27 Noroeste 0 -- -- 31
2019-06-10 21:00:00 25.3 13 Noroeste 31 Norte 0 -- -- 27
2019-06-10 20:00:00 26.5 18 Oeste 35 Oeste 0 -- -- 24
2019-06-10 19:00:00 27 17 Oeste 35 Noroeste 0 -- -- 23
2019-06-10 18:00:00 27.2 17 Oeste 28 Noroeste 0 -- -- 26
2019-06-10 17:00:00 26.8 13 Noroeste 27 Noroeste 0 -- -- 27
2019-06-10 16:00:00 26.3 14 Norte 27 Noroeste 0 -- -- 28
2019-06-10 15:00:00 25 11 Oeste 28 Oeste 0 -- -- 31
2019-06-10 14:00:00 23.8 12 Noroeste 28 Norte 0 -- -- 34
2019-06-10 13:00:00 22.8 12 Norte 23 Noroeste 0 -- -- 38
2019-06-10 12:00:00 21.1 12 Noroeste 22 Oeste 0 -- -- 43
2019-06-10 11:00:00 19.5 7 Noroeste 14 Norte 0 -- -- 48
2019-06-10 10:00:00 16.8 4 Sudoeste 10 Oeste 0 -- -- 61
2019-06-10 09:00:00 13.7 0 Calma 6 Este 0 -- -- 81
2019-06-10 08:00:00 8.7 5 Este 9 Este 0 -- -- 94
2019-06-10 07:00:00 7.6 2 Sur 4 Sur 0 -- -- 92
2019-06-10 06:00:00 8.9 0 Calma 8 Sudeste 0 -- -- 92
2019-06-10 05:00:00 9.8 3 Este 6 Sudoeste 0 -- -- 91
2019-06-10 04:00:00 11 3 Sudoeste 9 Noroeste 0 -- -- 87
2019-06-10 03:00:00 12.1 2 Nordeste 8 Oeste 0 -- -- 84
2019-06-10 02:00:00 14.2 3 Oeste 12 Sudoeste 0 -- -- 80
2019-06-10 01:00:00 15.4 6 Sudoeste 17 Sudoeste 0 -- -- 74
2019-06-10 00:00:00 16.7 10 Oeste 25 Oeste 0 -- -- 68
2019-06-09 23:00:00 18.4 14 Oeste 29 Oeste 0 -- -- 60
2019-06-09 22:00:00 20.3 17 Oeste 37 Oeste 0 -- -- 52
2019-06-09 21:00:00 22.7 18 Noroeste 32 Noroeste 0 -- -- 37
2019-06-09 20:00:00 24.3 17 Noroeste 33 Oeste 0 -- -- 34
2019-06-09 19:00:00 25.8 19 Oeste 39 Oeste 0 -- -- 30
2019-06-09 18:00:00 26.2 17 Noroeste 36 Sudoeste 0 -- -- 29
2019-06-09 17:00:00 26.1 16 Noroeste 30 Oeste 0 -- -- 26
2019-06-09 16:00:00 26 19 Oeste 34 Noroeste 0 -- -- 25
2019-06-09 15:00:00 24.9 14 Oeste 30 Oeste 0 -- -- 27
2019-06-09 14:00:00 23.3 12 Noroeste 28 Noroeste 0 -- -- 28
2019-06-09 13:00:00 21.6 11 Norte 27 Oeste 0 -- -- 31
2019-06-09 12:00:00 20 11 Noroeste 23 Noroeste 0 -- -- 35
2019-06-09 11:00:00 17.6 6 Sudoeste 17 Sudoeste 0 -- -- 46
2019-06-09 10:00:00 15.8 3 Noroeste 6 Nordeste 0 -- -- 52
2019-06-09 09:00:00 12.3 2 Noroeste 6 Noroeste 0 -- -- 66
2019-06-09 08:00:00 7.6 4 Este 6 Este 0 -- -- 79
2019-06-09 07:00:00 6.2 0 Calma 5 Oeste 0 -- -- 81
2019-06-09 06:00:00 7.4 0 Calma 5 Noroeste 0 -- -- 77
2019-06-09 05:00:00 8.8 0 Calma 5 Este 0 -- -- 71
2019-06-09 04:00:00 11.3 4 Este 12 Oeste 0 -- -- 63
2019-06-09 03:00:00 14 6 Noroeste 13 Noroeste 0 -- -- 53
2019-06-09 02:00:00 16.1 5 Norte 12 Noroeste 0 -- -- 49
2019-06-09 01:00:00 17.4 8 Oeste 22 Oeste 0 -- -- 48
2019-06-09 00:00:00 19.3 5 Noroeste 15 Oeste 0 -- -- 46
2019-06-08 23:00:00 21.2 7 Sudoeste 26 Noroeste 0 -- -- 39
2019-06-08 22:00:00 23.3 7 Oeste 21 Oeste 0 -- -- 29
2019-06-08 21:00:00 25.9 10 Oeste 25 Oeste 0 -- -- 21
2019-06-08 20:00:00 27.9 14 Oeste 24 Oeste 0 -- -- 18
2019-06-08 19:00:00 28.6 13 Noroeste 28 Noroeste 0 -- -- 17
2019-06-08 18:00:00 28.8 9 Oeste 26 Oeste 0 -- -- 17
2019-06-08 17:00:00 28.8 12 Oeste 29 Oeste 0 -- -- 18
2019-06-08 16:00:00 28.3 13 Oeste 27 Oeste 0 -- -- 20
2019-06-08 15:00:00 27 10 Noroeste 29 Noroeste 0 -- -- 22
2019-06-08 14:00:00 26.1 8 Norte 19 Norte 0 -- -- 23
2019-06-08 13:00:00 24.5 9 Noroeste 19 Oeste 0 -- -- 25
2019-06-08 12:00:00 24 6 Oeste 13 Oeste 0 -- -- 25
2019-06-08 11:00:00 22 2 Sudoeste 9 Oeste 0 -- -- 35
2019-06-08 10:00:00 17.9 4 Oeste 8 Oeste 0 -- -- 46
2019-06-08 09:00:00 12.4 0 Calma 3 Norte 0 -- -- 67
2019-06-08 08:00:00 7.4 0 Calma 5 Este 0 -- -- 79
2019-06-08 07:00:00 6.3 0 Calma 4 Nordeste 0 -- -- 81
2019-06-08 06:00:00 8.2 0 Calma 5 Este 0 -- -- 74
2019-06-08 05:00:00 11.1 2 Este 7 Norte 0 -- -- 65
2019-06-08 04:00:00 12.6 4 Sur 9 Sudeste 0 -- -- 60
2019-06-08 03:00:00 14.4 4 Sur 24 Norte 0 -- -- 53
2019-06-08 02:00:00 16.1 10 Norte 30 Nordeste 0 -- -- 47
2019-06-08 01:00:00 17.2 9 Norte 23 Norte 0 -- -- 41
2019-06-08 00:00:00 16.8 8 Norte 17 Norte 0 -- -- 40
2019-06-07 23:00:00 17.6 3 Noroeste 10 Noroeste 0 -- -- 39
2019-06-07 22:00:00 19.7 7 Noroeste 18 Noroeste 0 -- -- 33
2019-06-07 21:00:00 22.6 8 Norte 23 Norte 0 -- -- 28
2019-06-07 20:00:00 23.6 9 Norte 26 Nordeste 0 -- -- 26
2019-06-07 19:00:00 23.7 12 Noroeste 28 Nordeste 0 -- -- 26
2019-06-07 18:00:00 23.3 13 Norte 29 Norte 0 -- -- 26
2019-06-07 17:00:00 23.2 10 Norte 25 Norte 0 -- -- 27
2019-06-07 16:00:00 22.2 10 Norte 27 Noroeste 0 -- -- 29
2019-06-07 15:00:00 21.3 15 Norte 31 Norte 0 -- -- 29
2019-06-07 14:00:00 20.1 15 Norte 28 Nordeste 0 -- -- 34
2019-06-07 13:00:00 19.1 14 Norte 30 Nordeste 0 -- -- 38
2019-06-07 12:00:00 17.7 12 Noroeste 30 Noroeste 0 -- -- 45
2019-06-07 11:00:00 16.3 13 Norte 35 Norte 0 -- -- 53
2019-06-07 10:00:00 14.5 18 Noroeste 28 Noroeste 0 -- -- 67
2019-06-07 09:00:00 13.3 9 Norte 21 Noroeste 0 -- -- 79
2019-06-07 08:00:00 11.3 5 Noroeste 17 Noroeste 0 -- -- 88
2019-06-07 07:00:00 11.8 8 Noroeste 24 Norte 0 -- -- 86
2019-06-07 06:00:00 12.2 4 Norte 13 Noroeste 0 -- -- 85
2019-06-07 05:00:00 12.4 0 Calma 16 Norte 0 -- -- 86
2019-06-07 04:00:00 12.6 5 Noroeste 15 Norte 0 -- -- 87
2019-06-07 03:00:00 12.6 5 Noroeste 26 Oeste 0 -- -- 86
2019-06-07 02:00:00 13 9 Noroeste 40 Noroeste 0 -- -- 89
2019-06-07 01:00:00 16.5 10 Oeste 28 Oeste 0 -- -- 74
2019-06-07 00:00:00 17.4 9 Oeste 26 Oeste 0 -- -- 62
2019-06-06 23:00:00 17.6 16 Oeste 30 Oeste 0 -- -- 60
2019-06-06 22:00:00 18.3 13 Oeste 33 Oeste 0 -- -- 57
2019-06-06 21:00:00 20.4 17 Oeste 34 Oeste 0 -- -- 49
2019-06-06 20:00:00 22.6 20 Oeste 33 Sudoeste 0 -- -- 39
2019-06-06 19:00:00 23.9 18 Oeste 36 Oeste 0 -- -- 35
2019-06-06 18:00:00 24.6 13 Oeste 34 Oeste 0 -- -- 32
2019-06-06 17:00:00 23.7 16 Oeste 35 Oeste 0 -- -- 34
2019-06-06 16:00:00 23.3 17 Oeste 34 Oeste 0 -- -- 31
2019-06-06 15:00:00 22.7 14 Noroeste 32 Oeste 0 -- -- 30
2019-06-06 14:00:00 21.6 12 Oeste 25 Oeste 0 -- -- 32
2019-06-06 13:00:00 20.5 11 Sudoeste 19 Sudoeste 0 -- -- 34
2019-06-06 12:00:00 19.4 4 Este 17 Norte 0 -- -- 39
2019-06-06 11:00:00 17.7 6 Noroeste 15 Noroeste 0 -- -- 42
2019-06-06 10:00:00 15.7 3 Sudoeste 9 Oeste 0 -- -- 51
2019-06-06 09:00:00 12.7 2 Este 8 Este 0 -- -- 63
2019-06-06 08:00:00 7.2 4 Este 8 Este 0 -- -- 81
2019-06-06 07:00:00 5.6 0 Calma 5 Este 0 -- -- 82
2019-06-06 06:00:00 7.1 0 Calma 5 Este 0 -- -- 77
2019-06-06 05:00:00 9 3 Nordeste 10 Oeste 0 -- -- 70
2019-06-06 04:00:00 12.1 5 Oeste 11 Oeste 0 -- -- 61
2019-06-06 03:00:00 12.7 7 Oeste 13 Oeste 0 -- -- 57
2019-06-06 02:00:00 14 4 Oeste 22 Norte 0 -- -- 51
2019-06-06 01:00:00 15.3 9 Noroeste 28 Norte 0 -- -- 47
2019-06-06 00:00:00 16.4 13 Noroeste 26 Norte 0 -- -- 39
2019-06-05 23:00:00 17.7 12 Noroeste 24 Noroeste 0 -- -- 35
2019-06-05 22:00:00 18.8 9 Noroeste 23 Noroeste 0 -- -- 35
2019-06-05 21:00:00 21.1 13 Oeste 25 Noroeste 0 -- -- 31
2019-06-05 20:00:00 22.1 14 Noroeste 32 Noroeste 0 -- -- 30
2019-06-05 19:00:00 22.8 10 Noroeste 32 Oeste 0 -- -- 30
2019-06-05 18:00:00 22.5 14 Oeste 42 Oeste 0 -- -- 30
2019-06-05 17:00:00 22.4 13 Noroeste 36 Norte 0 -- -- 29
2019-06-05 16:00:00 22.3 18 Noroeste 36 Noroeste 0 -- -- 33
2019-06-05 15:00:00 20.2 15 Norte 35 Noroeste 0 -- -- 36
2019-06-05 14:00:00 19.8 16 Noroeste 33 Noroeste 0 -- -- 39
2019-06-05 13:00:00 19.1 17 Noroeste 32 Noroeste 0 -- -- 43
2019-06-05 12:00:00 17.7 16 Noroeste 32 Noroeste 0 -- -- 49
2019-06-05 11:00:00 17.1 18 Norte 33 Noroeste 0 -- -- 51
2019-06-05 10:00:00 15.1 14 Noroeste 35 Oeste 0 -- -- 63
2019-06-05 09:00:00 13.5 13 Noroeste 28 Noroeste 0 -- -- 76
2019-06-05 08:00:00 12.5 11 Noroeste 25 Noroeste 0 -- -- 83
2019-06-05 07:00:00 12.3 9 Noroeste 24 Noroeste 0 -- -- 83
2019-06-05 06:00:00 12.6 8 Oeste 15 Oeste 0 -- -- 82
2019-06-05 05:00:00 12.6 6 Oeste 23 Noroeste 0 -- -- 79
2019-06-05 04:00:00 12.9 7 Noroeste 30 Oeste 0 -- -- 75
2019-06-05 03:00:00 13.7 17 Noroeste 32 Oeste 0 -- -- 69
2019-06-05 02:00:00 14.5 13 Noroeste 36 Noroeste 0 -- -- 63
2019-06-05 01:00:00 16.1 24 Noroeste 42 Noroeste 0 -- -- 53
2019-06-05 00:00:00 17.1 22 Noroeste 39 Noroeste 0 -- -- 53
2019-06-04 23:00:00 18.6 10 Noroeste 22 Noroeste 0 -- -- 59
2019-06-04 22:00:00 19.1 10 Noroeste 23 Noroeste 0 -- -- 61
2019-06-04 21:00:00 20.6 13 Noroeste 31 Oeste 0 -- -- 57
2019-06-04 20:00:00 21.4 16 Noroeste 42 Noroeste 0 -- -- 59
2019-06-04 19:00:00 24 24 Noroeste 40 Oeste 0 -- -- 49
2019-06-04 18:00:00 25.6 13 Noroeste 33 Oeste 0 -- -- 42
2019-06-04 17:00:00 25.8 17 Oeste 31 Oeste 0 -- -- 43
2019-06-04 16:00:00 26.4 16 Oeste 33 Oeste 0 -- -- 42
2019-06-04 15:00:00 25.9 13 Oeste 29 Oeste 0 -- -- 42
2019-06-04 14:00:00 24.9 13 Oeste 22 Oeste 0 -- -- 46
2019-06-04 13:00:00 23.6 12 Noroeste 24 Noroeste 0 -- -- 50
2019-06-04 12:00:00 22.1 10 Noroeste 24 Oeste 0 -- -- 54
2019-06-04 11:00:00 20.4 12 Noroeste 24 Noroeste 0 -- -- 60
2019-06-04 10:00:00 18.7 8 Noroeste 20 Norte 0 -- -- 69
2019-06-04 09:00:00 16.4 6 Noroeste 18 Noroeste 0 -- -- 84
2019-06-04 08:00:00 15.8 6 Noroeste 15 Norte 0 -- -- 89
2019-06-04 07:00:00 14.8 4 Noroeste 12 Noroeste 0 -- -- 90
2019-06-04 06:00:00 11.2 0 Calma 5 Sudeste 0 -- -- 82
2019-06-04 05:00:00 11.9 0 Calma 3 Nordeste 0 -- -- 76
2019-06-04 04:00:00 12.8 0 Calma 5 Este 0 -- -- 73
2019-06-04 03:00:00 14.4 3 Nordeste 4 Nordeste 0 -- -- 65
2019-06-04 02:00:00 15.3 2 Nordeste 6 Oeste 0 -- -- 56
2019-06-04 01:00:00 16.9 3 Norte 8 Oeste 0 -- -- 49
2019-06-04 00:00:00 20.7 6 Oeste 14 Oeste 0 -- -- 38
2019-06-03 23:00:00 23.2 11 Oeste 25 Oeste 0 -- -- 32
2019-06-03 22:00:00 26.1 8 Oeste 31 Oeste 0 -- -- 28
2019-06-03 21:00:00 29.5 17 Oeste 32 Noroeste 0 -- -- 25
2019-06-03 20:00:00 32.3 15 Oeste 28 Oeste 0 -- -- 21
2019-06-03 19:00:00 33.3 16 Oeste 28 Sudoeste 0 -- -- 17
2019-06-03 18:00:00 33.9 13 Oeste 29 Sudoeste 0 -- -- 17
2019-06-03 17:00:00 33.9 12 Oeste 32 Oeste 0 -- -- 17
2019-06-03 16:00:00 33.9 10 Noroeste 28 Sudoeste 0 -- -- 17
2019-06-03 15:00:00 33.6 9 Sudoeste 27 Oeste 0 -- -- 17
2019-06-03 14:00:00 32.6 13 Oeste 24 Oeste 0 -- -- 17
2019-06-03 13:00:00 31.7 8 Sudoeste 17 Oeste 0 -- -- 19
2019-06-03 12:00:00 30 5 Este 12 Noroeste 0 -- -- 20
2019-06-03 11:00:00 27.5 6 Oeste 11 Noroeste 0 -- -- 26
2019-06-03 10:00:00 23.3 2 Oeste 4 Norte 0 -- -- 40
2019-06-03 09:00:00 17.3 0 Calma 4 Sudeste 0 -- -- 61
2019-06-03 08:00:00 13 0 Calma 5 Sudeste 0 -- -- 70
2019-06-03 07:00:00 11.7 3 Este 5 Este 0 -- -- 72
2019-06-03 06:00:00 12.3 2 Sudeste 5 Sudeste 0 -- -- 72
2019-06-03 05:00:00 13.3 3 Este 6 Este 0 -- -- 69
2019-06-03 04:00:00 13.8 3 Sur 6 Nordeste 0 -- -- 69
2019-06-03 03:00:00 15.5 0 Calma 7 Este 0 -- -- 64
2019-06-03 02:00:00 17.3 3 Sudeste 6 Oeste 0 -- -- 57
2019-06-03 01:00:00 19.2 4 Sudeste 9 Nordeste 0 -- -- 50
2019-06-03 00:00:00 21.4 3 Nordeste 5 Este 0 -- -- 44
2019-06-02 23:00:00 24.4 4 Nordeste 15 Sur 0 -- -- 36
2019-06-02 22:00:00 27.8 8 Sudoeste 14 Nordeste 0 -- -- 29
2019-06-02 21:00:00 31.4 12 Sur 31 Sur 0 -- -- 24
2019-06-02 20:00:00 35.4 4 Sudoeste 21 Oeste 0 -- -- 19
2019-06-02 19:00:00 36.1 9 Oeste 24 Noroeste 0 -- -- 18
2019-06-02 18:00:00 36.3 6 Sur 18 Sudoeste 0 -- -- 18
2019-06-02 17:00:00 36.3 9 Sur 21 Sudeste 0 -- -- 19
2019-06-02 16:00:00 35.4 6 Noroeste 13 Este 0 -- -- 20
2019-06-02 15:00:00 33.8 5 Este 17 Oeste 0 -- -- 21
2019-06-02 14:00:00 31.9 9 Oeste 18 Oeste 0 -- -- 23
2019-06-02 13:00:00 30.1 10 Noroeste 19 Noroeste 0 -- -- 26
2019-06-02 12:00:00 28.5 6 Oeste 15 Noroeste 0 -- -- 28
2019-06-02 11:00:00 26.2 6 Noroeste 18 Oeste 0 -- -- 31
2019-06-02 10:00:00 24.6 2 Norte 4 Norte 0 -- -- 32
2019-06-02 09:00:00 18.3 2 Este 8 Este 0 -- -- 52
2019-06-02 08:00:00 13 2 Sudeste 6 Este 0 -- -- 72
2019-06-02 07:00:00 12 4 Este 6 Este 0 -- -- 73
2019-06-02 06:00:00 11.9 0 Calma 6 Este 0 -- -- 73
2019-06-02 05:00:00 12.4 2 Sudeste 4 Sur 0 -- -- 72
2019-06-02 04:00:00 12.9 0 Calma 3 Sur 0 -- -- 69
2019-06-02 03:00:00 14 0 Calma 4 Nordeste 0 -- -- 66
2019-06-02 02:00:00 15.2 0 Calma 4 Nordeste 0 -- -- 61
2019-06-02 01:00:00 17.3 0 Calma 10 Este 0 -- -- 54
2019-06-02 00:00:00 19.3 6 Este 10 Este 0 -- -- 48
2019-06-01 23:00:00 22 2 Este 6 Oeste 0 -- -- 41
2019-06-01 22:00:00 26.6 3 Sur 20 Sudoeste 0 -- -- 31
2019-06-01 21:00:00 31.4 14 Sudoeste 27 Sudoeste 0 -- -- 23
2019-06-01 20:00:00 35.7 12 Sur 25 Sudoeste 0 -- -- 18
2019-06-01 19:00:00 36.6 8 Sur 22 Sudeste 0 -- -- 18
2019-06-01 18:00:00 36 10 Sudeste 31 Sudeste 0 -- -- 18
2019-06-01 17:00:00 36.2 13 Sur 28 Sudeste 0 -- -- 16
2019-06-01 16:00:00 35.7 8 Sudeste 33 Este 0 -- -- 17
2019-06-01 15:00:00 35 15 Sudeste 30 Sudeste 0 -- -- 18
2019-06-01 14:00:00 33.6 8 Este 30 Este 0 -- -- 18
2019-06-01 13:00:00 32.4 12 Nordeste 26 Este 0 -- -- 20
2019-06-01 12:00:00 31 10 Este 22 Sudeste 0 -- -- 22
2019-06-01 11:00:00 29.1 14 Sudeste 23 Sudeste 0 -- -- 25
2019-06-01 10:00:00 26.3 10 Este 18 Este 0 -- -- 28
2019-06-01 09:00:00 19.7 3 Sudeste 5 Este 0 -- -- 46
2019-06-01 08:00:00 14 4 Este 8 Este 0 -- -- 67
2019-06-01 07:00:00 12.5 4 Sudeste 8 Sudeste 0 -- -- 70
2019-06-01 06:00:00 11.8 3 Sudeste 9 Sudeste 0 -- -- 73
2019-06-01 05:00:00 11.4 3 Este 4 Este 0 -- -- 75
2019-06-01 04:00:00 12.6 3 Este 5 Nordeste 0 -- -- 69
2019-06-01 03:00:00 13.3 0 Calma 5 Sudoeste 0 -- -- 66
2019-06-01 02:00:00 15.7 2 Sudeste 7 Este 0 -- -- 57
2019-06-01 01:00:00 16.4 0 Calma 6 Nordeste 0 -- -- 55
2019-06-01 00:00:00 19.1 0 Calma 8 Norte 0 -- -- 47
2019-05-31 23:00:00 21.5 2 Norte 10 Sur 0 -- -- 42
2019-05-31 22:00:00 27.7 4 Nordeste 11 Sudeste 0 -- -- 31
2019-05-31 21:00:00 32.6 8 Sudeste 18 Sudeste 0 -- -- 21
2019-05-31 20:00:00 33.8 10 Este 28 Sudeste 0 -- -- 20
2019-05-31 19:00:00 34.9 12 Sudeste 32 Este 0 -- -- 19
2019-05-31 18:00:00 35 14 Este 24 Sudeste 0 -- -- 17
2019-05-31 17:00:00 35.3 11 Sudeste 28 Sudeste 0 -- -- 18
2019-05-31 16:00:00 34.8 12 Sudeste 33 Sudeste 0 -- -- 17
2019-05-31 15:00:00 33.5 13 Este 29 Este 0 -- -- 19
2019-05-31 14:00:00 33.1 18 Sudeste 31 Sudeste 0 -- -- 20
2019-05-31 13:00:00 31.6 13 Sudeste 27 Sudeste 0 -- -- 21
2019-05-31 12:00:00 29.7 12 Este 28 Nordeste 0 -- -- 22
2019-05-31 11:00:00 27.4 18 Este 28 Este 0 -- -- 28
2019-05-31 10:00:00 25.2 12 Este 21 Este 0 -- -- 31
2019-05-31 09:00:00 18.1 0 Calma 5 Sudeste 0 -- -- 59
2019-05-31 08:00:00 11.2 0 Calma 4 Este 0 -- -- 88
2019-05-31 07:00:00 9.8 0 Calma 5 Nordeste 0 -- -- 89
2019-05-31 06:00:00 10.7 0 Calma 3 Este 0 -- -- 86
2019-05-31 05:00:00 12 0 Calma 6 Este 0 -- -- 80
2019-05-31 04:00:00 12.6 3 Este 6 Nordeste 0 -- -- 79
2019-05-31 03:00:00 13.3 0 Calma 5 Sur 0 -- -- 77
2019-05-31 02:00:00 14.6 0 Calma 5 Norte 0 -- -- 72
2019-05-31 01:00:00 16.7 2 Nordeste 4 Nordeste 0 -- -- 64
2019-05-31 00:00:00 19.1 2 Nordeste 5 Este 0 -- -- 56
2019-05-30 23:00:00 22.2 0 Calma 9 Sur 0 -- -- 47
2019-05-30 22:00:00 26.8 2 Norte 21 Sudoeste 0 -- -- 36
2019-05-30 21:00:00 32.4 8 Sudeste 21 Sur 0 -- -- 25
2019-05-30 20:00:00 34.3 13 Sudoeste 24 Sudoeste 0 -- -- 22
2019-05-30 19:00:00 34.8 12 Sudeste 22 Sudeste 0 -- -- 15
2019-05-30 18:00:00 34.6 11 Nordeste 28 Nordeste 0 -- -- 16
2019-05-30 17:00:00 34.9 13 Sur 30 Sudeste 0 -- -- 21
2019-05-30 16:00:00 34.1 10 Sudeste 24 Este 0 -- -- 21
2019-05-30 15:00:00 33.2 14 Sudeste 32 Este 0 -- -- 22
2019-05-30 14:00:00 31.8 11 Este 28 Sudeste 0 -- -- 23
2019-05-30 13:00:00 30.5 15 Este 34 Sudeste 0 -- -- 23
2019-05-30 12:00:00 29 16 Este 30 Sudeste 0 -- -- 26
2019-05-30 11:00:00 27 22 Este 36 Este 0 -- -- 26
2019-05-30 10:00:00 25.7 11 Este 18 Este 0 -- -- 30
2019-05-30 09:00:00 17.4 0 Calma 3 Sudeste 0 -- -- 50
2019-05-30 08:00:00 11 0 Calma 3 Este 0 -- -- 71
2019-05-30 07:00:00 10.1 0 Calma 2 Sur 0 -- -- 72
2019-05-30 06:00:00 11.3 0 Calma 5 Norte 0 -- -- 67
2019-05-30 05:00:00 13.4 0 Calma 5 Sur 0 -- -- 57
2019-05-30 04:00:00 15.7 0 Calma 6 Norte 0 -- -- 47
2019-05-30 03:00:00 18.5 3 Nordeste 5 Norte 0 -- -- 40
2019-05-30 02:00:00 22 3 Sudeste 13 Este 0 -- -- 33
2019-05-30 01:00:00 24.8 6 Este 19 Nordeste 0 -- -- 25
2019-05-30 00:00:00 25.3 9 Este 27 Este 0 -- -- 26
2019-05-29 23:00:00 22.8 2 Nordeste 11 Nordeste 0 -- -- 33
2019-05-29 22:00:00 27.3 5 Nordeste 19 Este 0 -- -- 23
2019-05-29 21:00:00 31.5 8 Nordeste 27 Nordeste 0 -- -- 19
2019-05-29 20:00:00 32.6 12 Nordeste 29 Este 0 -- -- 17
2019-05-29 19:00:00 33.2 14 Nordeste 32 Nordeste 0 -- -- 16
2019-05-29 18:00:00 33.5 12 Este 28 Este 0 -- -- 17
2019-05-29 17:00:00 33.4 13 Nordeste 29 Norte 0 -- -- 17
2019-05-29 16:00:00 33.3 13 Nordeste 30 Este 0 -- -- 17
2019-05-29 15:00:00 32.8 11 Nordeste 28 Este 0 -- -- 18
2019-05-29 14:00:00 31.8 12 Nordeste 25 Nordeste 0 -- -- 20
2019-05-29 13:00:00 30.5 12 Nordeste 23 Norte 0 -- -- 22
2019-05-29 12:00:00 30 12 Nordeste 22 Norte 0 -- -- 23
2019-05-29 11:00:00 28.1 10 Nordeste 21 Nordeste 0 -- -- 24
2019-05-29 10:00:00 25.6 12 Este 20 Este 0 -- -- 27
2019-05-29 09:00:00 22.6 4 Nordeste 12 Norte 0 -- -- 32
2019-05-29 08:00:00 17.6 4 Norte 9 Norte 0 -- -- 43
2019-05-29 07:00:00 16.5 5 Nordeste 9 Este 0 -- -- 43
2019-05-29 06:00:00 16.7 3 Nordeste 8 Nordeste 0 -- -- 41
2019-05-29 05:00:00 14.6 3 Sur 10 Este 0 -- -- 52
2019-05-29 04:00:00 16.8 0 Calma 6 Este 0 -- -- 44
2019-05-29 03:00:00 22.5 3 Sudeste 31 Nordeste 0 -- -- 31
2019-05-29 02:00:00 25.4 10 Nordeste 31 Norte 0 -- -- 24
2019-05-29 01:00:00 26.4 19 Nordeste 32 Nordeste 0 -- -- 22
2019-05-29 00:00:00 26.9 12 Nordeste 31 Norte 0 -- -- 21
2019-05-28 23:00:00 27.3 15 Norte 24 Norte 0 -- -- 23
2019-05-28 22:00:00 28.3 10 Norte 23 Norte 0 -- -- 24
2019-05-28 21:00:00 31.7 10 Norte 23 Norte 0 -- -- 25
2019-05-28 20:00:00 32.9 13 Norte 27 Norte 0 -- -- 23
2019-05-28 19:00:00 33.9 8 Nordeste 26 Noroeste 0 -- -- 22
2019-05-28 18:00:00 33.9 14 Norte 26 Nordeste 0 -- -- 22
2019-05-28 17:00:00 33.7 8 Norte 28 Nordeste 0 -- -- 23
2019-05-28 16:00:00 32.8 13 Noroeste 27 Norte 0 -- -- 26
2019-05-28 15:00:00 31.8 11 Noroeste 29 Noroeste 0 -- -- 27
2019-05-28 14:00:00 30.5 10 Norte 25 Nordeste 0 -- -- 29
2019-05-28 13:00:00 29.5 13 Norte 25 Norte 0 -- -- 34
2019-05-28 12:00:00 27.8 5 Sudoeste 14 Oeste 0 -- -- 40
2019-05-28 11:00:00 24.4 7 Noroeste 14 Oeste 0 -- -- 49
2019-05-28 10:00:00 19.9 2 Oeste 6 Noroeste 0 -- -- 67
2019-05-28 09:00:00 16 0 Calma 3 Nordeste 0 -- -- 80
2019-05-28 08:00:00 11.2 0 Calma 3 Sur 0 -- -- 93
2019-05-28 07:00:00 11 3 Este 4 Este 0 -- -- 93
2019-05-28 06:00:00 11.7 3 Sudeste 4 Sudeste 0 -- -- 91
2019-05-28 05:00:00 13.5 2 Este 6 Noroeste 0 -- -- 83
2019-05-28 04:00:00 15.8 6 Noroeste 13 Noroeste 0 -- -- 78
2019-05-28 03:00:00 16.8 8 Noroeste 13 Noroeste 0 -- -- 75
2019-05-28 02:00:00 18.5 8 Noroeste 17 Noroeste 0 -- -- 69
2019-05-28 01:00:00 20.2 6 Noroeste 26 Oeste 0 -- -- 62
2019-05-28 00:00:00 22 13 Oeste 26 Sudoeste 0 -- -- 54
2019-05-27 23:00:00 24.2 11 Noroeste 27 Noroeste 0 -- -- 45
2019-05-27 22:00:00 26.3 14 Noroeste 31 Noroeste 0 -- -- 40
2019-05-27 21:00:00 29.1 15 Noroeste 30 Noroeste 0 -- -- 34
2019-05-27 20:00:00 31.2 16 Oeste 28 Oeste 0 -- -- 29
2019-05-27 19:00:00 32.2 13 Noroeste 29 Noroeste 0 -- -- 26
2019-05-27 18:00:00 32 19 Oeste 35 Oeste 0 -- -- 23
2019-05-27 17:00:00 32.7 19 Oeste 36 Oeste 0 -- -- 23
2019-05-27 16:00:00 32.6 12 Norte 33 Oeste 0 -- -- 24
2019-05-27 15:00:00 32.7 11 Noroeste 30 Norte 0 -- -- 25
2019-05-27 14:00:00 31.6 12 Norte 25 Noroeste 0 -- -- 26
2019-05-27 13:00:00 31.3 6 Noroeste 21 Sudoeste 0 -- -- 27
2019-05-27 12:00:00 29.3 5 Sudoeste 13 Noroeste 0 -- -- 34
2019-05-27 11:00:00 26 4 Noroeste 7 Noroeste 0 -- -- 38
2019-05-27 10:00:00 21.9 2 Noroeste 5 Noroeste 0 -- -- 49
2019-05-27 09:00:00 16.3 0 Calma 6 Este 0 -- -- 64
2019-05-27 08:00:00 11.2 2 Sudeste 4 Sudeste 0 -- -- 85
2019-05-27 07:00:00 9.8 0 Calma 5 Nordeste 0 -- -- 86
2019-05-27 06:00:00 10.4 0 Calma 4 Nordeste 0 -- -- 84
2019-05-27 05:00:00 12.2 0 Calma 8 Sudeste 0 -- -- 74
2019-05-27 04:00:00 13.4 3 Sudeste 8 Sudeste 0 -- -- 68
2019-05-27 03:00:00 15.1 0 Calma 7 Sudeste 0 -- -- 61
2019-05-27 02:00:00 17.1 5 Sudeste 8 Sudeste 0 -- -- 58
2019-05-27 01:00:00 18.5 5 Nordeste 13 Oeste 0 -- -- 52
2019-05-27 00:00:00 18.5 4 Nordeste 8 Este 0 -- -- 47
2019-05-26 23:00:00 22.3 5 Nordeste 10 Nordeste 0 -- -- 35
2019-05-26 22:00:00 27.4 4 Norte 18 Norte 0 -- -- 26
2019-05-26 21:00:00 30.4 11 Norte 22 Norte 0 -- -- 22
2019-05-26 20:00:00 31.1 13 Norte 27 Norte 0 -- -- 21
2019-05-26 19:00:00 31.7 12 Norte 30 Norte 0 -- -- 22
2019-05-26 18:00:00 31.3 14 Nordeste 27 Norte 0 -- -- 23
2019-05-26 17:00:00 31.5 10 Norte 33 Norte 0 -- -- 24
2019-05-26 16:00:00 31.3 7 Noroeste 26 Nordeste 0 -- -- 24
2019-05-26 15:00:00 30.5 9 Norte 28 Norte 0 -- -- 24
2019-05-26 14:00:00 29.6 14 Norte 27 Nordeste 0 -- -- 24
2019-05-26 13:00:00 28.5 12 Este 26 Este 0 -- -- 26
2019-05-26 12:00:00 27.2 9 Nordeste 22 Nordeste 0 -- -- 27
2019-05-26 11:00:00 25.9 12 Norte 22 Nordeste 0 -- -- 31
2019-05-26 10:00:00 23.6 4 Sudeste 9 Sudeste 0 -- -- 34
2019-05-26 09:00:00 16.5 0 Calma 7 Sudoeste 0 -- -- 60
2019-05-26 08:00:00 10.6 0 Calma 6 Este 0 -- -- 76
2019-05-26 07:00:00 9.8 3 Sudeste 5 Sudeste 0 -- -- 76
2019-05-26 06:00:00 10.1 2 Este 9 Nordeste 0 -- -- 75
2019-05-26 05:00:00 10 4 Sudeste 7 Sudeste 0 -- -- 76
2019-05-26 04:00:00 10.4 0 Calma 6 Este 0 -- -- 73
2019-05-26 03:00:00 11.8 0 Calma 4 Nordeste 0 -- -- 68
2019-05-26 02:00:00 13.7 3 Nordeste 8 Nordeste 0 -- -- 58
2019-05-26 01:00:00 14.9 3 Este 8 Sudeste 0 -- -- 52
2019-05-26 00:00:00 16.7 4 Este 8 Sudeste 0 -- -- 45